sensor_id;sensor_type;location;lat;lon;timestamp;P1;durP1;ratioP1;P2;durP2;ratioP2
1765;SDS011;880;52.452;8.656;2023-03-01T00:01:39;8.00;;;7.30;;
1765;SDS011;880;52.452;8.656;2023-03-01T00:04:06;10.82;;;7.30;;
1765;SDS011;880;52.452;8.656;2023-03-01T00:06:33;8.98;;;7.50;;
1765;SDS011;880;52.452;8.656;2023-03-01T00:09:00;9.30;;;8.02;;
1765;SDS011;880;52.452;8.656;2023-03-01T00:11:28;8.48;;;7.63;;
1765;SDS011;880;52.452;8.656;2023-03-01T00:13:58;8.75;;;7.82;;
1765;SDS011;880;52.452;8.656;2023-03-01T00:16:28;7.60;;;6.90;;
1765;SDS011;880;52.452;8.656;2023-03-01T00:18:59;8.55;;;7.85;;
1765;SDS011;880;52.452;8.656;2023-03-01T00:21:27;9.68;;;6.80;;
1765;SDS011;880;52.452;8.656;2023-03-01T00:23:55;8.15;;;7.55;;
1765;SDS011;880;52.452;8.656;2023-03-01T00:26:25;8.80;;;7.30;;
1765;SDS011;880;52.452;8.656;2023-03-01T00:28:54;8.50;;;7.68;;
1765;SDS011;880;52.452;8.656;2023-03-01T00:31:24;7.68;;;6.95;;
1765;SDS011;880;52.452;8.656;2023-03-01T00:33:58;7.93;;;7.30;;
1765;SDS011;880;52.452;8.656;2023-03-01T00:38:58;8.30;;;7.32;;
1765;SDS011;880;52.452;8.656;2023-03-01T00:41:26;7.28;;;6.75;;
1765;SDS011;880;52.452;8.656;2023-03-01T00:43:53;9.15;;;8.43;;
1765;SDS011;880;52.452;8.656;2023-03-01T00:46:22;7.80;;;7.20;;
1765;SDS011;880;52.452;8.656;2023-03-01T00:48:52;7.07;;;6.43;;
1765;SDS011;880;52.452;8.656;2023-03-01T00:51:21;9.82;;;7.35;;
1765;SDS011;880;52.452;8.656;2023-03-01T00:53:52;8.57;;;7.85;;
1765;SDS011;880;52.452;8.656;2023-03-01T00:56:21;7.72;;;7.13;;
1765;SDS011;880;52.452;8.656;2023-03-01T00:58:48;8.45;;;7.75;;
1765;SDS011;880;52.452;8.656;2023-03-01T01:01:17;6.50;;;5.88;;
1765;SDS011;880;52.452;8.656;2023-03-01T01:03:55;7.55;;;6.80;;
1765;SDS011;880;52.452;8.656;2023-03-01T01:06:32;7.25;;;6.30;;
1765;SDS011;880;52.452;8.656;2023-03-01T01:09:03;10.15;;;8.10;;
1765;SDS011;880;52.452;8.656;2023-03-01T01:11:32;7.13;;;5.80;;
1765;SDS011;880;52.452;8.656;2023-03-01T01:14:01;7.68;;;7.00;;
1765;SDS011;880;52.452;8.656;2023-03-01T01:16:29;7.32;;;6.72;;
1765;SDS011;880;52.452;8.656;2023-03-01T01:18:57;8.52;;;7.72;;
1765;SDS011;880;52.452;8.656;2023-03-01T01:21:24;8.48;;;7.78;;
1765;SDS011;880;52.452;8.656;2023-03-01T01:23:52;8.40;;;7.70;;
1765;SDS011;880;52.452;8.656;2023-03-01T01:26:20;8.00;;;7.25;;
1765;SDS011;880;52.452;8.656;2023-03-01T01:28:57;8.20;;;7.28;;
1765;SDS011;880;52.452;8.656;2023-03-01T01:31:25;8.43;;;7.50;;
1765;SDS011;880;52.452;8.656;2023-03-01T01:33:52;8.30;;;7.25;;
1765;SDS011;880;52.452;8.656;2023-03-01T01:36:20;8.32;;;7.57;;
1765;SDS011;880;52.452;8.656;2023-03-01T01:38:48;8.48;;;7.63;;
1765;SDS011;880;52.452;8.656;2023-03-01T01:41:15;9.45;;;7.38;;
1765;SDS011;880;52.452;8.656;2023-03-01T01:43:43;8.35;;;6.40;;
1765;SDS011;880;52.452;8.656;2023-03-01T01:46:25;7.97;;;6.85;;
1765;SDS011;880;52.452;8.656;2023-03-01T01:48:59;9.10;;;7.07;;
1765;SDS011;880;52.452;8.656;2023-03-01T01:51:31;7.47;;;6.78;;
1765;SDS011;880;52.452;8.656;2023-03-01T01:54:12;7.82;;;5.97;;
1765;SDS011;880;52.452;8.656;2023-03-01T01:57:13;8.65;;;7.80;;
1765;SDS011;880;52.452;8.656;2023-03-01T01:59:53;12.00;;;6.82;;
1765;SDS011;880;52.452;8.656;2023-03-01T02:02:25;7.05;;;5.75;;
1765;SDS011;880;52.452;8.656;2023-03-01T02:04:54;6.32;;;5.70;;
1765;SDS011;880;52.452;8.656;2023-03-01T02:07:55;7.22;;;6.32;;
1765;SDS011;880;52.452;8.656;2023-03-01T02:10:24;7.63;;;6.30;;
1765;SDS011;880;52.452;8.656;2023-03-01T02:12:54;6.65;;;5.80;;
1765;SDS011;880;52.452;8.656;2023-03-01T02:15:22;7.28;;;6.32;;
1765;SDS011;880;52.452;8.656;2023-03-01T02:17:50;6.53;;;5.68;;
1765;SDS011;880;52.452;8.656;2023-03-01T02:23:31;7.20;;;5.28;;
1765;SDS011;880;52.452;8.656;2023-03-01T02:28:49;7.93;;;6.82;;
1765;SDS011;880;52.452;8.656;2023-03-01T02:31:19;7.30;;;6.53;;
1765;SDS011;880;52.452;8.656;2023-03-01T02:34:06;7.88;;;6.95;;
1765;SDS011;880;52.452;8.656;2023-03-01T02:39:44;7.97;;;7.18;;
1765;SDS011;880;52.452;8.656;2023-03-01T02:42:16;10.48;;;7.28;;
1765;SDS011;880;52.452;8.656;2023-03-01T02:44:57;7.97;;;6.60;;
1765;SDS011;880;52.452;8.656;2023-03-01T02:47:24;6.38;;;5.78;;
1765;SDS011;880;52.452;8.656;2023-03-01T02:49:51;10.25;;;6.18;;
1765;SDS011;880;52.452;8.656;2023-03-01T02:55:12;9.63;;;7.10;;
1765;SDS011;880;52.452;8.656;2023-03-01T02:57:43;8.45;;;7.15;;
1765;SDS011;880;52.452;8.656;2023-03-01T03:00:13;7.25;;;6.55;;
1765;SDS011;880;52.452;8.656;2023-03-01T03:02:49;10.27;;;7.18;;
1765;SDS011;880;52.452;8.656;2023-03-01T03:05:21;11.50;;;8.48;;
1765;SDS011;880;52.452;8.656;2023-03-01T03:07:55;8.82;;;7.53;;
1765;SDS011;880;52.452;8.656;2023-03-01T03:10:25;10.18;;;7.93;;
1765;SDS011;880;52.452;8.656;2023-03-01T03:13:03;7.63;;;6.60;;
1765;SDS011;880;52.452;8.656;2023-03-01T03:15:33;9.93;;;7.95;;
1765;SDS011;880;52.452;8.656;2023-03-01T03:18:03;10.90;;;7.25;;
1765;SDS011;880;52.452;8.656;2023-03-01T03:20:32;9.43;;;6.90;;
1765;SDS011;880;52.452;8.656;2023-03-01T03:23:00;12.40;;;8.20;;
1765;SDS011;880;52.452;8.656;2023-03-01T03:25:27;8.95;;;7.53;;
1765;SDS011;880;52.452;8.656;2023-03-01T03:27:55;8.98;;;6.72;;
1765;SDS011;880;52.452;8.656;2023-03-01T03:30:32;8.88;;;7.18;;
1765;SDS011;880;52.452;8.656;2023-03-01T03:32:59;7.28;;;6.63;;
1765;SDS011;880;52.452;8.656;2023-03-01T03:35:31;9.43;;;7.05;;
1765;SDS011;880;52.452;8.656;2023-03-01T03:38:11;8.48;;;6.97;;
1765;SDS011;880;52.452;8.656;2023-03-01T03:40:46;7.85;;;6.75;;
1765;SDS011;880;52.452;8.656;2023-03-01T03:43:20;6.90;;;6.22;;
1765;SDS011;880;52.452;8.656;2023-03-01T03:45:50;8.15;;;7.35;;
1765;SDS011;880;52.452;8.656;2023-03-01T03:48:17;11.85;;;9.02;;
1765;SDS011;880;52.452;8.656;2023-03-01T03:50:49;8.65;;;7.82;;
1765;SDS011;880;52.452;8.656;2023-03-01T03:53:20;9.02;;;6.43;;
1765;SDS011;880;52.452;8.656;2023-03-01T03:55:49;7.22;;;6.53;;
1765;SDS011;880;52.452;8.656;2023-03-01T03:58:18;9.35;;;8.55;;
1765;SDS011;880;52.452;8.656;2023-03-01T04:00:49;9.30;;;6.82;;
1765;SDS011;880;52.452;8.656;2023-03-01T04:03:19;8.30;;;7.07;;
1765;SDS011;880;52.452;8.656;2023-03-01T04:05:46;9.18;;;8.27;;
1765;SDS011;880;52.452;8.656;2023-03-01T04:08:16;8.90;;;7.90;;
1765;SDS011;880;52.452;8.656;2023-03-01T04:10:49;8.68;;;7.68;;
1765;SDS011;880;52.452;8.656;2023-03-01T04:13:20;10.27;;;9.27;;
1765;SDS011;880;52.452;8.656;2023-03-01T04:15:49;8.98;;;7.38;;
1765;SDS011;880;52.452;8.656;2023-03-01T04:18:20;7.65;;;6.10;;
1765;SDS011;880;52.452;8.656;2023-03-01T04:20:49;8.40;;;7.55;;
1765;SDS011;880;52.452;8.656;2023-03-01T04:23:18;8.27;;;7.47;;
1765;SDS011;880;52.452;8.656;2023-03-01T04:25:54;11.63;;;6.43;;
1765;SDS011;880;52.452;8.656;2023-03-01T04:28:24;7.03;;;5.90;;
1765;SDS011;880;52.452;8.656;2023-03-01T04:31:02;8.77;;;6.32;;
1765;SDS011;880;52.452;8.656;2023-03-01T04:33:42;7.90;;;7.10;;
1765;SDS011;880;52.452;8.656;2023-03-01T04:36:13;7.55;;;6.85;;
1765;SDS011;880;52.452;8.656;2023-03-01T04:38:42;7.72;;;7.00;;
1765;SDS011;880;52.452;8.656;2023-03-01T04:41:14;7.63;;;6.90;;
1765;SDS011;880;52.452;8.656;2023-03-01T04:43:46;8.57;;;7.30;;
1765;SDS011;880;52.452;8.656;2023-03-01T04:46:16;9.27;;;7.03;;
1765;SDS011;880;52.452;8.656;2023-03-01T04:48:45;7.35;;;6.57;;
1765;SDS011;880;52.452;8.656;2023-03-01T04:53:43;9.68;;;7.35;;
1765;SDS011;880;52.452;8.656;2023-03-01T04:56:11;14.45;;;7.63;;
1765;SDS011;880;52.452;8.656;2023-03-01T04:58:42;13.60;;;6.85;;
1765;SDS011;880;52.452;8.656;2023-03-01T05:01:09;10.38;;;7.60;;
1765;SDS011;880;52.452;8.656;2023-03-01T05:03:42;10.07;;;9.13;;
1765;SDS011;880;52.452;8.656;2023-03-01T05:06:11;8.23;;;7.47;;
1765;SDS011;880;52.452;8.656;2023-03-01T05:08:38;9.23;;;8.00;;
1765;SDS011;880;52.452;8.656;2023-03-01T05:11:06;10.25;;;7.05;;
1765;SDS011;880;52.452;8.656;2023-03-01T05:13:35;11.07;;;7.55;;
1765;SDS011;880;52.452;8.656;2023-03-01T05:16:04;9.10;;;7.82;;
1765;SDS011;880;52.452;8.656;2023-03-01T05:18:37;8.85;;;7.47;;
1765;SDS011;880;52.452;8.656;2023-03-01T05:21:06;8.13;;;6.75;;
1765;SDS011;880;52.452;8.656;2023-03-01T05:23:36;7.28;;;6.53;;
1765;SDS011;880;52.452;8.656;2023-03-01T05:26:05;12.43;;;7.53;;
1765;SDS011;880;52.452;8.656;2023-03-01T05:28:48;9.93;;;8.43;;
1765;SDS011;880;52.452;8.656;2023-03-01T05:31:15;11.35;;;6.72;;
1765;SDS011;880;52.452;8.656;2023-03-01T05:33:42;8.50;;;6.32;;
1765;SDS011;880;52.452;8.656;2023-03-01T05:36:09;7.82;;;6.68;;
1765;SDS011;880;52.452;8.656;2023-03-01T05:38:36;8.80;;;7.28;;
1765;SDS011;880;52.452;8.656;2023-03-01T05:41:03;9.65;;;7.68;;
1765;SDS011;880;52.452;8.656;2023-03-01T05:43:31;9.60;;;8.60;;
1765;SDS011;880;52.452;8.656;2023-03-01T05:46:00;9.45;;;6.85;;
1765;SDS011;880;52.452;8.656;2023-03-01T05:48:27;10.48;;;7.40;;
1765;SDS011;880;52.452;8.656;2023-03-01T05:50:54;9.88;;;7.80;;
1765;SDS011;880;52.452;8.656;2023-03-01T05:53:26;12.82;;;7.45;;
1765;SDS011;880;52.452;8.656;2023-03-01T05:55:53;11.50;;;7.07;;
1765;SDS011;880;52.452;8.656;2023-03-01T05:58:20;10.30;;;7.68;;
1765;SDS011;880;52.452;8.656;2023-03-01T06:00:48;7.97;;;7.03;;
1765;SDS011;880;52.452;8.656;2023-03-01T06:03:18;8.10;;;7.00;;
1765;SDS011;880;52.452;8.656;2023-03-01T06:05:45;10.65;;;7.13;;
1765;SDS011;880;52.452;8.656;2023-03-01T06:08:12;11.00;;;7.35;;
1765;SDS011;880;52.452;8.656;2023-03-01T06:10:40;8.98;;;7.43;;
1765;SDS011;880;52.452;8.656;2023-03-01T06:13:07;8.50;;;7.18;;
1765;SDS011;880;52.452;8.656;2023-03-01T06:15:34;9.80;;;7.82;;
1765;SDS011;880;52.452;8.656;2023-03-01T06:18:01;15.48;;;7.72;;
1765;SDS011;880;52.452;8.656;2023-03-01T06:20:28;9.07;;;8.05;;
1765;SDS011;880;52.452;8.656;2023-03-01T06:22:55;11.63;;;8.88;;
1765;SDS011;880;52.452;8.656;2023-03-01T06:25:23;18.70;;;9.27;;
1765;SDS011;880;52.452;8.656;2023-03-01T06:27:53;13.55;;;10.55;;
1765;SDS011;880;52.452;8.656;2023-03-01T06:30:20;13.60;;;9.68;;
1765;SDS011;880;52.452;8.656;2023-03-01T06:32:49;12.23;;;10.02;;
1765;SDS011;880;52.452;8.656;2023-03-01T06:35:17;15.07;;;9.82;;
1765;SDS011;880;52.452;8.656;2023-03-01T06:37:45;10.30;;;9.30;;
1765;SDS011;880;52.452;8.656;2023-03-01T06:40:14;14.23;;;9.57;;
1765;SDS011;880;52.452;8.656;2023-03-01T06:42:43;9.68;;;8.73;;
1765;SDS011;880;52.452;8.656;2023-03-01T06:45:15;13.30;;;9.57;;
1765;SDS011;880;52.452;8.656;2023-03-01T06:47:44;11.13;;;9.73;;
1765;SDS011;880;52.452;8.656;2023-03-01T06:50:11;13.63;;;10.05;;
1765;SDS011;880;52.452;8.656;2023-03-01T06:52:40;12.60;;;9.43;;
1765;SDS011;880;52.452;8.656;2023-03-01T06:55:07;13.07;;;8.63;;
1765;SDS011;880;52.452;8.656;2023-03-01T06:57:34;12.13;;;8.52;;
1765;SDS011;880;52.452;8.656;2023-03-01T07:00:01;13.05;;;9.55;;
1765;SDS011;880;52.452;8.656;2023-03-01T07:02:33;10.90;;;7.70;;
1765;SDS011;880;52.452;8.656;2023-03-01T07:05:00;8.70;;;7.60;;
1765;SDS011;880;52.452;8.656;2023-03-01T07:07:27;10.38;;;8.80;;
1765;SDS011;880;52.452;8.656;2023-03-01T07:09:54;11.38;;;8.52;;
1765;SDS011;880;52.452;8.656;2023-03-01T07:12:21;11.45;;;9.05;;
1765;SDS011;880;52.452;8.656;2023-03-01T07:14:48;10.10;;;9.02;;
1765;SDS011;880;52.452;8.656;2023-03-01T07:17:14;11.38;;;9.45;;
1765;SDS011;880;52.452;8.656;2023-03-01T07:19:41;10.05;;;8.40;;
1765;SDS011;880;52.452;8.656;2023-03-01T07:22:08;10.35;;;8.75;;
1765;SDS011;880;52.452;8.656;2023-03-01T07:24:35;13.98;;;9.15;;
1765;SDS011;880;52.452;8.656;2023-03-01T07:27:02;11.63;;;9.55;;
1765;SDS011;880;52.452;8.656;2023-03-01T07:29:30;11.07;;;8.65;;
1765;SDS011;880;52.452;8.656;2023-03-01T07:31:57;10.07;;;8.30;;
1765;SDS011;880;52.452;8.656;2023-03-01T07:34:24;9.85;;;8.35;;
1765;SDS011;880;52.452;8.656;2023-03-01T07:36:52;9.63;;;8.18;;
1765;SDS011;880;52.452;8.656;2023-03-01T07:39:18;11.82;;;10.85;;
1765;SDS011;880;52.452;8.656;2023-03-01T07:41:45;10.20;;;8.75;;
1765;SDS011;880;52.452;8.656;2023-03-01T07:44:12;9.82;;;8.90;;
1765;SDS011;880;52.452;8.656;2023-03-01T07:46:39;9.68;;;7.82;;
1765;SDS011;880;52.452;8.656;2023-03-01T07:49:06;9.68;;;8.40;;
1765;SDS011;880;52.452;8.656;2023-03-01T07:51:33;13.38;;;10.05;;
1765;SDS011;880;52.452;8.656;2023-03-01T07:54:00;10.68;;;8.48;;
1765;SDS011;880;52.452;8.656;2023-03-01T07:56:27;10.35;;;8.98;;
1765;SDS011;880;52.452;8.656;2023-03-01T07:58:55;11.68;;;10.57;;
1765;SDS011;880;52.452;8.656;2023-03-01T08:01:22;13.02;;;10.45;;
1765;SDS011;880;52.452;8.656;2023-03-01T08:03:50;12.48;;;10.02;;
1765;SDS011;880;52.452;8.656;2023-03-01T08:06:17;11.63;;;10.45;;
1765;SDS011;880;52.452;8.656;2023-03-01T08:08:44;12.00;;;10.70;;
1765;SDS011;880;52.452;8.656;2023-03-01T08:11:12;12.43;;;11.32;;
1765;SDS011;880;52.452;8.656;2023-03-01T08:13:41;11.52;;;10.50;;
1765;SDS011;880;52.452;8.656;2023-03-01T08:16:10;15.80;;;9.20;;
1765;SDS011;880;52.452;8.656;2023-03-01T08:18:39;12.88;;;11.38;;
1765;SDS011;880;52.452;8.656;2023-03-01T08:21:08;12.98;;;11.13;;
1765;SDS011;880;52.452;8.656;2023-03-01T08:23:41;13.93;;;12.57;;
1765;SDS011;880;52.452;8.656;2023-03-01T08:26:11;15.50;;;13.30;;
1765;SDS011;880;52.452;8.656;2023-03-01T08:28:45;14.30;;;12.80;;
1765;SDS011;880;52.452;8.656;2023-03-01T08:31:15;14.02;;;12.65;;
1765;SDS011;880;52.452;8.656;2023-03-01T08:34:10;16.20;;;14.70;;
1765;SDS011;880;52.452;8.656;2023-03-01T08:36:41;14.50;;;13.15;;
1765;SDS011;880;52.452;8.656;2023-03-01T08:39:12;12.80;;;10.88;;
1765;SDS011;880;52.452;8.656;2023-03-01T08:41:42;14.40;;;13.05;;
1765;SDS011;880;52.452;8.656;2023-03-01T08:44:12;13.48;;;12.10;;
1765;SDS011;880;52.452;8.656;2023-03-01T08:46:43;14.00;;;12.70;;
1765;SDS011;880;52.452;8.656;2023-03-01T08:49:12;14.07;;;12.68;;
1765;SDS011;880;52.452;8.656;2023-03-01T08:51:43;12.77;;;11.77;;
1765;SDS011;880;52.452;8.656;2023-03-01T08:54:16;12.77;;;11.68;;
1765;SDS011;880;52.452;8.656;2023-03-01T08:56:46;13.57;;;12.27;;
1765;SDS011;880;52.452;8.656;2023-03-01T08:59:15;13.15;;;11.32;;
1765;SDS011;880;52.452;8.656;2023-03-01T09:01:43;12.13;;;11.00;;
1765;SDS011;880;52.452;8.656;2023-03-01T09:04:10;12.23;;;11.07;;
1765;SDS011;880;52.452;8.656;2023-03-01T09:06:39;12.27;;;11.07;;
1765;SDS011;880;52.452;8.656;2023-03-01T09:09:06;12.38;;;11.10;;
1765;SDS011;880;52.452;8.656;2023-03-01T09:11:41;16.05;;;11.85;;
1765;SDS011;880;52.452;8.656;2023-03-01T09:14:09;12.18;;;11.00;;
1765;SDS011;880;52.452;8.656;2023-03-01T09:16:37;11.93;;;10.90;;
1765;SDS011;880;52.452;8.656;2023-03-01T09:19:06;12.73;;;11.73;;
1765;SDS011;880;52.452;8.656;2023-03-01T09:21:33;12.88;;;11.68;;
1765;SDS011;880;52.452;8.656;2023-03-01T09:24:08;12.27;;;11.27;;
1765;SDS011;880;52.452;8.656;2023-03-01T09:26:40;11.88;;;10.80;;
1765;SDS011;880;52.452;8.656;2023-03-01T09:29:07;12.25;;;11.10;;
1765;SDS011;880;52.452;8.656;2023-03-01T09:31:35;11.70;;;10.85;;
1765;SDS011;880;52.452;8.656;2023-03-01T09:34:02;12.85;;;11.70;;
1765;SDS011;880;52.452;8.656;2023-03-01T09:36:30;12.38;;;11.38;;
1765;SDS011;880;52.452;8.656;2023-03-01T09:38:58;11.88;;;10.93;;
1765;SDS011;880;52.452;8.656;2023-03-01T09:41:30;12.40;;;11.30;;
1765;SDS011;880;52.452;8.656;2023-03-01T09:44:34;12.20;;;11.18;;
1765;SDS011;880;52.452;8.656;2023-03-01T09:47:20;12.25;;;11.10;;
1765;SDS011;880;52.452;8.656;2023-03-01T09:52:42;11.98;;;11.15;;
1765;SDS011;880;52.452;8.656;2023-03-01T09:55:15;12.27;;;11.23;;
1765;SDS011;880;52.452;8.656;2023-03-01T10:00:22;12.23;;;11.27;;
1765;SDS011;880;52.452;8.656;2023-03-01T10:02:52;12.60;;;11.70;;
1765;SDS011;880;52.452;8.656;2023-03-01T10:11:03;13.35;;;12.15;;
1765;SDS011;880;52.452;8.656;2023-03-01T10:13:50;12.50;;;11.40;;
1765;SDS011;880;52.452;8.656;2023-03-01T10:16:50;11.73;;;10.85;;
1765;SDS011;880;52.452;8.656;2023-03-01T10:19:44;12.82;;;11.93;;
1765;SDS011;880;52.452;8.656;2023-03-01T10:24:49;11.70;;;10.80;;
1765;SDS011;880;52.452;8.656;2023-03-01T10:33:16;11.18;;;10.40;;
1765;SDS011;880;52.452;8.656;2023-03-01T10:35:48;11.48;;;10.70;;
1765;SDS011;880;52.452;8.656;2023-03-01T10:38:16;9.57;;;8.98;;
1765;SDS011;880;52.452;8.656;2023-03-01T10:40:58;11.88;;;11.15;;
1765;SDS011;880;52.452;8.656;2023-03-01T10:43:51;12.20;;;11.30;;
1765;SDS011;880;52.452;8.656;2023-03-01T10:46:29;12.82;;;11.82;;
1765;SDS011;880;52.452;8.656;2023-03-01T10:51:45;11.80;;;11.00;;
1765;SDS011;880;52.452;8.656;2023-03-01T10:54:30;12.48;;;11.57;;
1765;SDS011;880;52.452;8.656;2023-03-01T10:57:03;11.82;;;10.95;;
1765;SDS011;880;52.452;8.656;2023-03-01T10:59:32;12.70;;;11.90;;
1765;SDS011;880;52.452;8.656;2023-03-01T11:07:53;11.70;;;10.90;;
1765;SDS011;880;52.452;8.656;2023-03-01T11:13:17;11.00;;;10.27;;
1765;SDS011;880;52.452;8.656;2023-03-01T11:15:59;10.80;;;10.10;;
1765;SDS011;880;52.452;8.656;2023-03-01T11:18:34;11.27;;;10.25;;
1765;SDS011;880;52.452;8.656;2023-03-01T11:21:13;11.30;;;10.50;;
1765;SDS011;880;52.452;8.656;2023-03-01T11:23:41;11.95;;;11.05;;
1765;SDS011;880;52.452;8.656;2023-03-01T11:26:12;11.55;;;10.85;;
1765;SDS011;880;52.452;8.656;2023-03-01T11:28:40;12.35;;;11.38;;
1765;SDS011;880;52.452;8.656;2023-03-01T11:31:11;11.60;;;9.80;;
1765;SDS011;880;52.452;8.656;2023-03-01T11:33:59;11.90;;;10.90;;
1765;SDS011;880;52.452;8.656;2023-03-01T11:36:52;10.32;;;9.63;;
1765;SDS011;880;52.452;8.656;2023-03-01T11:39:32;11.55;;;10.77;;
1765;SDS011;880;52.452;8.656;2023-03-01T11:42:17;11.35;;;10.45;;
1765;SDS011;880;52.452;8.656;2023-03-01T11:44:48;12.30;;;11.50;;
1765;SDS011;880;52.452;8.656;2023-03-01T11:47:26;11.45;;;10.75;;
1765;SDS011;880;52.452;8.656;2023-03-01T11:53:09;13.65;;;12.88;;
1765;SDS011;880;52.452;8.656;2023-03-01T11:56:16;10.85;;;10.23;;
1765;SDS011;880;52.452;8.656;2023-03-01T11:59:03;12.52;;;11.57;;
1765;SDS011;880;52.452;8.656;2023-03-01T12:02:01;11.15;;;10.55;;
1765;SDS011;880;52.452;8.656;2023-03-01T12:04:44;10.57;;;9.77;;
1765;SDS011;880;52.452;8.656;2023-03-01T12:07:54;12.48;;;11.48;;
1765;SDS011;880;52.452;8.656;2023-03-01T12:10:52;11.93;;;11.15;;
1765;SDS011;880;52.452;8.656;2023-03-01T12:30:17;12.65;;;11.75;;
1765;SDS011;880;52.452;8.656;2023-03-01T12:35:54;13.35;;;12.13;;
1765;SDS011;880;52.452;8.656;2023-03-01T18:13:42;14.15;;;11.75;;
1765;SDS011;880;52.452;8.656;2023-03-01T18:16:46;17.02;;;13.38;;
1765;SDS011;880;52.452;8.656;2023-03-01T18:19:49;15.95;;;12.85;;
1765;SDS011;880;52.452;8.656;2023-03-01T18:22:53;19.13;;;14.27;;
1765;SDS011;880;52.452;8.656;2023-03-01T18:25:58;27.52;;;15.38;;
1765;SDS011;880;52.452;8.656;2023-03-01T18:29:03;20.63;;;14.68;;
1765;SDS011;880;52.452;8.656;2023-03-01T18:32:09;21.70;;;14.05;;
1765;SDS011;880;52.452;8.656;2023-03-01T18:35:13;19.77;;;13.48;;
1765;SDS011;880;52.452;8.656;2023-03-01T18:38:20;18.92;;;14.90;;
1765;SDS011;880;52.452;8.656;2023-03-01T18:41:26;15.32;;;13.68;;
1765;SDS011;880;52.452;8.656;2023-03-01T18:48:40;13.20;;;11.98;;
1765;SDS011;880;52.452;8.656;2023-03-01T18:51:43;13.10;;;11.70;;
1765;SDS011;880;52.452;8.656;2023-03-01T18:54:47;11.25;;;10.27;;
1765;SDS011;880;52.452;8.656;2023-03-01T18:57:51;12.05;;;11.10;;
1765;SDS011;880;52.452;8.656;2023-03-01T19:00:55;11.00;;;9.85;;
1765;SDS011;880;52.452;8.656;2023-03-01T19:04:00;11.45;;;10.40;;
1765;SDS011;880;52.452;8.656;2023-03-01T19:07:03;11.60;;;10.57;;
1765;SDS011;880;52.452;8.656;2023-03-01T19:10:07;12.15;;;11.25;;
1765;SDS011;880;52.452;8.656;2023-03-01T19:12:35;14.32;;;11.75;;
1765;SDS011;880;52.452;8.656;2023-03-01T19:15:04;13.30;;;12.00;;
1765;SDS011;880;52.452;8.656;2023-03-01T19:17:31;15.52;;;13.75;;
1765;SDS011;880;52.452;8.656;2023-03-01T19:19:59;20.98;;;15.15;;
1765;SDS011;880;52.452;8.656;2023-03-01T19:22:26;18.83;;;11.85;;
1765;SDS011;880;52.452;8.656;2023-03-01T19:24:53;18.70;;;13.48;;
1765;SDS011;880;52.452;8.656;2023-03-01T19:27:20;20.70;;;14.55;;
1765;SDS011;880;52.452;8.656;2023-03-01T19:29:47;14.93;;;10.50;;
1765;SDS011;880;52.452;8.656;2023-03-01T19:32:14;11.93;;;10.90;;
1765;SDS011;880;52.452;8.656;2023-03-01T19:34:41;12.23;;;11.13;;
1765;SDS011;880;52.452;8.656;2023-03-01T19:37:08;12.45;;;11.25;;
1765;SDS011;880;52.452;8.656;2023-03-01T19:39:35;11.77;;;10.68;;
1765;SDS011;880;52.452;8.656;2023-03-01T19:42:08;14.15;;;10.50;;
1765;SDS011;880;52.452;8.656;2023-03-01T19:44:36;10.43;;;9.73;;
1765;SDS011;880;52.452;8.656;2023-03-01T19:47:03;10.98;;;10.07;;
1765;SDS011;880;52.452;8.656;2023-03-01T19:49:30;9.73;;;9.13;;
1765;SDS011;880;52.452;8.656;2023-03-01T19:51:58;9.75;;;9.15;;
1765;SDS011;880;52.452;8.656;2023-03-01T19:54:25;10.55;;;9.80;;
1765;SDS011;880;52.452;8.656;2023-03-01T19:56:52;9.75;;;9.13;;
1765;SDS011;880;52.452;8.656;2023-03-01T19:59:19;9.48;;;8.88;;
1765;SDS011;880;52.452;8.656;2023-03-01T20:01:50;11.65;;;10.68;;
1765;SDS011;880;52.452;8.656;2023-03-01T20:04:17;12.80;;;11.80;;
1765;SDS011;880;52.452;8.656;2023-03-01T20:06:45;12.85;;;11.85;;
1765;SDS011;880;52.452;8.656;2023-03-01T20:09:12;19.08;;;17.08;;
1765;SDS011;880;52.452;8.656;2023-03-01T20:11:46;14.27;;;12.77;;
1765;SDS011;880;52.452;8.656;2023-03-01T20:14:13;12.70;;;11.52;;
1765;SDS011;880;52.452;8.656;2023-03-01T20:16:40;10.73;;;9.98;;
1765;SDS011;880;52.452;8.656;2023-03-01T20:19:07;11.27;;;10.35;;
1765;SDS011;880;52.452;8.656;2023-03-01T20:21:34;11.23;;;10.32;;
1765;SDS011;880;52.452;8.656;2023-03-01T20:24:02;10.38;;;9.57;;
1765;SDS011;880;52.452;8.656;2023-03-01T20:26:29;8.23;;;7.50;;
1765;SDS011;880;52.452;8.656;2023-03-01T20:28:57;10.85;;;9.90;;
1765;SDS011;880;52.452;8.656;2023-03-01T20:31:25;11.10;;;9.63;;
1765;SDS011;880;52.452;8.656;2023-03-01T20:33:55;10.82;;;10.02;;
1765;SDS011;880;52.452;8.656;2023-03-01T20:36:23;10.75;;;9.93;;
1765;SDS011;880;52.452;8.656;2023-03-01T20:38:52;10.52;;;9.73;;
1765;SDS011;880;52.452;8.656;2023-03-01T20:41:20;10.10;;;9.43;;
1765;SDS011;880;52.452;8.656;2023-03-01T20:43:49;10.07;;;9.13;;
1765;SDS011;880;52.452;8.656;2023-03-01T20:46:20;9.93;;;9.13;;
1765;SDS011;880;52.452;8.656;2023-03-01T20:48:49;9.18;;;8.55;;
1765;SDS011;880;52.452;8.656;2023-03-01T20:51:17;7.95;;;7.30;;
1765;SDS011;880;52.452;8.656;2023-03-01T20:53:44;9.07;;;8.45;;
1765;SDS011;880;52.452;8.656;2023-03-01T20:56:12;10.73;;;9.82;;
1765;SDS011;880;52.452;8.656;2023-03-01T20:58:40;12.82;;;11.52;;
1765;SDS011;880;52.452;8.656;2023-03-01T21:01:09;15.88;;;14.43;;
1765;SDS011;880;52.452;8.656;2023-03-01T21:03:41;12.80;;;11.70;;
1765;SDS011;880;52.452;8.656;2023-03-01T21:06:08;14.00;;;12.70;;
1765;SDS011;880;52.452;8.656;2023-03-01T21:08:35;13.48;;;12.18;;
1765;SDS011;880;52.452;8.656;2023-03-01T21:11:03;11.32;;;10.30;;
1765;SDS011;880;52.452;8.656;2023-03-01T21:13:33;9.40;;;8.60;;
1765;SDS011;880;52.452;8.656;2023-03-01T21:16:02;9.95;;;9.15;;
1765;SDS011;880;52.452;8.656;2023-03-01T21:18:33;10.18;;;9.23;;
1765;SDS011;880;52.452;8.656;2023-03-01T21:21:03;11.07;;;9.75;;
1765;SDS011;880;52.452;8.656;2023-03-01T21:23:34;11.32;;;10.25;;
1765;SDS011;880;52.452;8.656;2023-03-01T21:28:57;11.27;;;10.02;;
1765;SDS011;880;52.452;8.656;2023-03-01T21:31:28;12.38;;;10.82;;
1765;SDS011;880;52.452;8.656;2023-03-01T21:33:59;12.23;;;11.10;;
1765;SDS011;880;52.452;8.656;2023-03-01T21:36:29;9.35;;;8.07;;
1765;SDS011;880;52.452;8.656;2023-03-01T21:38:59;11.27;;;10.02;;
1765;SDS011;880;52.452;8.656;2023-03-01T21:41:28;12.95;;;11.20;;
1765;SDS011;880;52.452;8.656;2023-03-01T21:43:58;11.00;;;9.80;;
1765;SDS011;880;52.452;8.656;2023-03-01T21:46:29;14.07;;;9.85;;
1765;SDS011;880;52.452;8.656;2023-03-01T21:48:59;13.00;;;11.07;;
1765;SDS011;880;52.452;8.656;2023-03-01T21:51:27;12.88;;;10.68;;
1765;SDS011;880;52.452;8.656;2023-03-01T21:53:56;14.20;;;10.60;;
1765;SDS011;880;52.452;8.656;2023-03-01T21:56:25;14.32;;;10.00;;
1765;SDS011;880;52.452;8.656;2023-03-01T21:58:55;44.17;;;19.00;;
1765;SDS011;880;52.452;8.656;2023-03-01T22:01:24;36.72;;;15.70;;
1765;SDS011;880;52.452;8.656;2023-03-01T22:03:54;18.95;;;12.73;;
1765;SDS011;880;52.452;8.656;2023-03-01T22:06:23;16.73;;;12.77;;
1765;SDS011;880;52.452;8.656;2023-03-01T22:08:56;14.70;;;9.77;;
1765;SDS011;880;52.452;8.656;2023-03-01T22:11:33;14.90;;;12.68;;
1765;SDS011;880;52.452;8.656;2023-03-01T22:16:31;16.83;;;12.15;;
1765;SDS011;880;52.452;8.656;2023-03-01T22:19:01;20.02;;;13.68;;
1765;SDS011;880;52.452;8.656;2023-03-01T22:21:30;22.17;;;14.18;;
1765;SDS011;880;52.452;8.656;2023-03-01T22:23:57;24.67;;;15.10;;
1765;SDS011;880;52.452;8.656;2023-03-01T22:26:26;24.77;;;15.98;;
1765;SDS011;880;52.452;8.656;2023-03-01T22:28:59;25.02;;;16.73;;
1765;SDS011;880;52.452;8.656;2023-03-01T22:31:33;25.45;;;16.67;;
1765;SDS011;880;52.452;8.656;2023-03-01T22:34:01;26.55;;;16.33;;
1765;SDS011;880;52.452;8.656;2023-03-01T22:36:29;26.02;;;16.73;;
1765;SDS011;880;52.452;8.656;2023-03-01T22:38:57;19.50;;;12.82;;
1765;SDS011;880;52.452;8.656;2023-03-01T22:41:31;22.65;;;15.45;;
1765;SDS011;880;52.452;8.656;2023-03-01T22:44:11;24.33;;;16.20;;